Time;durP1;ratioP1;P1;durP2;ratioP2;P2;SDS_P1;SDS_P2;PMS_P1;PMS_P2;Temp;Humidity;BMP_temperature;BMP_pressure;BME280_temperature;BME280_humidity;BME280_pressure;Samples;Min_cycle;Max_cycle;Signal;HPM_P1;HPM_P2
2023/12/25 00:00:44;;;;;;;3.00;1.15;;;11.20;99.90;;;;;;5060831;28;20075;-80
2023/12/25 00:03:10;;;;;;;0.60;0.60;;;11.30;99.90;;;;;;5054362;28;20393;-81
2023/12/25 00:05:35;;;;;;;0.50;0.50;;;11.30;99.90;;;;;;5046103;28;20134;-80
2023/12/25 00:08:01;;;;;;;0.57;0.57;;;11.20;99.90;;;;;;5036572;28;20139;-80
2023/12/25 00:10:28;;;;;;;1.52;0.60;;;11.30;99.90;;;;;;5056058;28;20049;-80
2023/12/25 00:12:54;;;;;;;0.50;0.50;;;11.30;99.90;;;;;;5054285;28;20052;-81
2023/12/25 00:15:20;;;;;;;0.63;0.63;;;11.30;99.90;;;;;;5054330;28;20044;-81
2023/12/25 00:17:46;;;;;;;0.60;0.60;;;11.30;99.90;;;;;;5055556;28;20060;-81
2023/12/25 00:20:11;;;;;;;0.65;0.65;;;11.20;99.90;;;;;;5050578;28;20076;-81
2023/12/25 00:22:37;;;;;;;0.73;0.73;;;11.20;99.90;;;;;;5046384;28;20152;-81
2023/12/25 00:25:03;;;;;;;0.70;0.70;;;11.20;99.90;;;;;;5051522;28;20151;-80
2023/12/25 00:27:28;;;;;;;1.48;1.20;;;11.20;99.90;;;;;;5055082;28;20051;-81
2023/12/25 00:29:54;;;;;;;1.05;1.05;;;11.20;99.90;;;;;;5054186;28;20062;-81
2023/12/25 00:32:20;;;;;;;0.70;0.70;;;11.30;99.90;;;;;;5049650;28;20087;-81
2023/12/25 00:34:46;;;;;;;0.60;0.60;;;11.30;99.90;;;;;;5053746;28;20056;-81
2023/12/25 00:37:12;;;;;;;0.45;0.45;;;11.30;99.90;;;;;;5051800;28;20059;-81
2023/12/25 00:39:38;;;;;;;1.13;1.02;;;11.30;99.90;;;;;;5049642;28;20056;-80
2023/12/25 00:42:03;;;;;;;0.75;0.75;;;11.20;99.90;;;;;;5047861;28;20581;-81
2023/12/25 00:44:29;;;;;;;1.17;1.08;;;11.20;99.90;;;;;;5054291;28;20098;-80
2023/12/25 00:46:54;;;;;;;0.60;0.60;;;11.20;99.90;;;;;;5056461;28;20051;-82
2023/12/25 00:49:20;;;;;;;0.50;0.50;;;11.20;99.90;;;;;;5052705;28;20048;-80
2023/12/25 00:51:46;;;;;;;0.77;0.77;;;11.20;99.90;;;;;;5061395;28;20497;-81
2023/12/25 00:54:11;;;;;;;0.40;0.40;;;11.20;99.90;;;;;;5053048;28;20048;-80
2023/12/25 00:56:37;;;;;;;0.60;0.60;;;11.20;99.90;;;;;;5059021;28;20044;-80
2023/12/25 00:59:03;;;;;;;0.40;0.40;;;11.20;99.90;;;;;;5055864;28;20041;-81
2023/12/25 01:01:28;;;;;;;0.40;0.40;;;11.20;99.90;;;;;;5058625;28;20052;-81
2023/12/25 01:03:54;;;;;;;1.20;1.10;;;11.10;99.90;;;;;;5054770;28;20033;-81
2023/12/25 01:06:19;;;;;;;0.90;0.90;;;11.10;99.90;;;;;;5047830;28;20134;-80
2023/12/25 01:08:45;;;;;;;2.20;2.00;;;11.10;99.90;;;;;;5050359;28;21050;-80
2023/12/25 01:11:11;;;;;;;0.65;0.65;;;11.00;99.90;;;;;;5052934;28;20132;-79
2023/12/25 01:13:36;;;;;;;0.60;0.60;;;11.00;99.90;;;;;;5051969;28;20453;-81
2023/12/25 01:16:02;;;;;;;0.50;0.50;;;11.00;99.90;;;;;;5048703;28;20131;-81
2023/12/25 01:18:28;;;;;;;0.50;0.50;;;10.90;99.90;;;;;;5049654;28;20124;-80
2023/12/25 01:20:53;;;;;;;0.50;0.50;;;10.90;99.90;;;;;;5053550;28;20051;-80
2023/12/25 01:23:19;;;;;;;0.40;0.40;;;10.90;99.90;;;;;;5050545;28;20040;-80
2023/12/25 01:25:44;;;;;;;0.47;0.47;;;10.80;99.90;;;;;;5054899;28;20040;-80
2023/12/25 01:28:10;;;;;;;0.40;0.40;;;10.80;99.90;;;;;;5047569;28;20044;-80
2023/12/25 01:30:35;;;;;;;0.45;0.45;;;10.80;99.90;;;;;;5072417;28;20040;-80
2023/12/25 01:33:01;;;;;;;1.75;1.23;;;10.80;99.90;;;;;;5037589;28;20059;-80
2023/12/25 01:35:27;;;;;;;1.10;0.95;;;10.80;99.90;;;;;;5048812;28;20045;-81
2023/12/25 01:37:52;;;;;;;0.50;0.50;;;10.70;99.90;;;;;;5054670;28;20047;-80
2023/12/25 01:40:18;;;;;;;0.50;0.50;;;10.70;99.90;;;;;;5054939;28;20045;-80
2023/12/25 01:42:44;;;;;;;0.40;0.40;;;10.70;99.90;;;;;;5056190;28;20059;-81
2023/12/25 01:45:13;;;;;;;0.60;0.60;;;10.70;99.90;;;;;;5071108;28;20044;-80
2023/12/25 01:47:38;;;;;;;0.38;0.38;;;10.60;99.90;;;;;;5058027;28;20043;-81
2023/12/25 01:50:06;;;;;;;0.40;0.40;;;10.60;99.90;;;;;;5052149;28;20036;-77
2023/12/25 01:52:31;;;;;;;0.95;0.95;;;10.60;99.90;;;;;;5056337;28;20229;-79
2023/12/25 01:54:59;;;;;;;0.50;0.50;;;10.60;99.90;;;;;;5056391;28;20127;-80
2023/12/25 01:57:25;;;;;;;1.42;1.27;;;10.60;99.90;;;;;;5059845;28;20056;-80
2023/12/25 01:59:51;;;;;;;0.40;0.40;;;10.60;99.90;;;;;;5059809;28;20379;-80
2023/12/25 02:02:20;;;;;;;0.40;0.40;;;10.60;99.90;;;;;;5062392;28;20052;-80
2023/12/25 02:04:46;;;;;;;0.50;0.50;;;10.60;99.90;;;;;;5058732;28;20089;-80
2023/12/25 02:07:12;;;;;;;0.40;0.40;;;10.60;99.90;;;;;;5052650;28;20441;-80
2023/12/25 02:09:38;;;;;;;0.88;0.88;;;10.60;99.90;;;;;;5050295;28;20153;-80
2023/12/25 02:12:04;;;;;;;0.52;0.52;;;10.60;99.90;;;;;;5058223;28;20767;-80
2023/12/25 02:14:30;;;;;;;0.40;0.40;;;10.60;99.90;;;;;;5055199;28;20064;-80
2023/12/25 02:16:56;;;;;;;0.55;0.55;;;10.60;99.90;;;;;;5060966;28;20049;-79
2023/12/25 02:19:29;;;;;;;0.73;0.73;;;10.60;99.90;;;;;;5057459;28;20692;-80
2023/12/25 02:21:56;;;;;;;0.73;0.73;;;10.60;99.90;;;;;;5061910;28;20045;-80
2023/12/25 02:24:29;;;;;;;1.02;0.90;;;10.50;99.90;;;;;;5057685;28;20043;-82
2023/12/25 02:26:54;;;;;;;1.10;1.10;;;10.50;99.90;;;;;;5049579;28;20600;-81
2023/12/25 02:29:21;;;;;;;0.60;0.60;;;10.50;99.90;;;;;;5051367;28;20052;-81
2023/12/25 02:31:48;;;;;;;1.05;0.73;;;10.50;99.90;;;;;;5048854;28;20041;-80
2023/12/25 02:34:14;;;;;;;0.40;0.40;;;10.50;99.90;;;;;;5054629;28;20056;-80
2023/12/25 02:36:40;;;;;;;3.40;1.15;;;10.50;99.90;;;;;;5059769;28;20075;-81
2023/12/25 02:39:06;;;;;;;0.38;0.38;;;10.50;99.90;;;;;;5055874;28;20131;-80
2023/12/25 02:41:31;;;;;;;7.95;0.60;;;10.50;99.90;;;;;;5056086;28;20040;-79
2023/12/25 02:43:57;;;;;;;4.13;1.08;;;10.50;99.90;;;;;;5056335;28;20132;-80
2023/12/25 02:46:22;;;;;;;0.40;0.40;;;10.50;99.90;;;;;;5056803;28;20049;-80
2023/12/25 02:48:48;;;;;;;0.75;0.75;;;10.50;99.90;;;;;;5050057;28;20053;-79
2023/12/25 02:51:13;;;;;;;0.40;0.40;;;10.50;99.90;;;;;;5056513;28;20075;-80
2023/12/25 02:53:39;;;;;;;0.40;0.40;;;10.50;99.90;;;;;;5057855;28;20040;-81
2023/12/25 02:56:05;;;;;;;0.40;0.40;;;10.50;99.90;;;;;;5036078;28;20075;-80
2023/12/25 02:58:31;;;;;;;0.50;0.50;;;10.50;99.90;;;;;;5050587;28;20072;-80
2023/12/25 03:00:56;;;;;;;0.75;0.75;;;10.50;99.90;;;;;;5051040;28;20127;-79
2023/12/25 03:03:22;;;;;;;0.47;0.47;;;10.50;99.90;;;;;;5059591;28;20040;-80
2023/12/25 03:05:47;;;;;;;2.03;1.85;;;10.40;99.90;;;;;;5060671;28;20061;-79
2023/12/25 03:08:13;;;;;;;0.40;0.40;;;10.40;99.90;;;;;;5059428;28;20060;-79
2023/12/25 03:10:38;;;;;;;0.50;0.50;;;10.40;99.90;;;;;;5057170;28;20040;-80
2023/12/25 03:13:04;;;;;;;0.50;0.50;;;10.40;99.90;;;;;;5055549;28;20053;-80
2023/12/25 03:15:30;;;;;;;0.55;0.55;;;10.40;99.90;;;;;;5037779;28;20119;-80
2023/12/25 03:17:55;;;;;;;0.40;0.40;;;10.40;99.90;;;;;;5040974;28;20040;-80
2023/12/25 03:20:22;;;;;;;0.50;0.50;;;10.50;99.90;;;;;;5055665;28;20072;-80
2023/12/25 03:22:48;;;;;;;0.50;0.50;;;10.50;99.90;;;;;;5058606;28;20040;-80
2023/12/25 03:25:14;;;;;;;0.50;0.50;;;10.50;99.90;;;;;;5058687;28;20055;-80
2023/12/25 03:27:39;;;;;;;0.50;0.50;;;10.40;99.90;;;;;;5054571;28;20044;-80
2023/12/25 03:30:06;;;;;;;0.50;0.50;;;10.50;99.90;;;;;;5047940;28;20071;-80
2023/12/25 03:32:33;;;;;;;4.07;0.90;;;10.40;99.90;;;;;;5055458;28;20044;-79
2023/12/25 03:34:59;;;;;;;0.60;0.60;;;10.40;99.90;;;;;;5049492;28;20048;-79
2023/12/25 03:37:25;;;;;;;0.40;0.40;;;10.40;99.90;;;;;;5054642;28;20665;-78
2023/12/25 03:39:52;;;;;;;0.50;0.50;;;10.40;99.90;;;;;;5059142;28;20032;-80
2023/12/25 03:42:18;;;;;;;0.50;0.50;;;10.40;99.90;;;;;;5053622;28;20060;-80
2023/12/25 03:44:44;;;;;;;0.77;0.77;;;10.40;99.90;;;;;;5053549;28;20090;-80
2023/12/25 03:47:10;;;;;;;0.50;0.50;;;10.40;99.90;;;;;;5050081;28;20041;-80
2023/12/25 03:49:36;;;;;;;0.63;0.63;;;10.40;99.90;;;;;;5046278;28;20297;-80
2023/12/25 03:52:02;;;;;;;0.50;0.50;;;10.40;99.90;;;;;;5051387;28;20439;-81
2023/12/25 03:54:28;;;;;;;0.50;0.50;;;10.40;99.90;;;;;;5050638;28;20047;-80
2023/12/25 03:56:54;;;;;;;0.50;0.50;;;10.40;99.90;;;;;;5051005;28;20105;-79
2023/12/25 03:59:19;;;;;;;0.60;0.60;;;10.40;99.90;;;;;;5051318;28;20057;-80
2023/12/25 04:01:45;;;;;;;0.43;0.43;;;10.40;99.90;;;;;;5052575;28;20718;-80
2023/12/25 04:04:11;;;;;;;1.58;1.48;;;10.40;99.90;;;;;;5052270;28;20060;-80
2023/12/25 04:06:36;;;;;;;5.88;1.05;;;10.40;99.90;;;;;;5052978;28;20048;-82
2023/12/25 04:09:03;;;;;;;0.88;0.88;;;10.40;99.90;;;;;;5051345;28;20431;-81
2023/12/25 04:11:30;;;;;;;0.77;0.77;;;10.40;99.90;;;;;;5048295;28;20049;-80
2023/12/25 04:13:55;;;;;;;0.40;0.40;;;10.40;99.90;;;;;;5055418;28;20417;-80
2023/12/25 04:16:23;;;;;;;0.50;0.50;;;10.40;99.90;;;;;;5055844;28;20049;-80
2023/12/25 04:18:50;;;;;;;0.50;0.50;;;10.40;99.90;;;;;;5054966;28;20055;-80
2023/12/25 04:21:25;;;;;;;0.40;0.40;;;10.40;99.90;;;;;;5056921;28;20037;-80
2023/12/25 04:23:52;;;;;;;0.75;0.75;;;10.40;99.90;;;;;;5052727;28;20494;-80
2023/12/25 04:26:22;;;;;;;2.50;1.05;;;10.40;99.90;;;;;;5052076;28;20045;-81
2023/12/25 04:28:49;;;;;;;0.40;0.40;;;10.40;99.90;;;;;;5048331;28;20048;-81
2023/12/25 04:31:15;;;;;;;0.65;0.65;;;10.40;99.90;;;;;;5054130;28;20054;-80
2023/12/25 04:33:41;;;;;;;0.38;0.38;;;10.40;99.90;;;;;;5051743;28;20044;-80
2023/12/25 04:36:07;;;;;;;0.40;0.40;;;10.40;99.90;;;;;;5049009;28;20036;-81
2023/12/25 04:38:33;;;;;;;2.50;1.40;;;10.40;99.90;;;;;;5058684;28;20108;-81
2023/12/25 04:40:59;;;;;;;0.70;0.70;;;10.40;99.90;;;;;;5037777;28;20098;-79
2023/12/25 04:43:25;;;;;;;1.15;1.08;;;10.40;99.90;;;;;;5052760;28;20053;-80
2023/12/25 04:45:50;;;;;;;1.45;1.35;;;10.40;99.90;;;;;;5052793;28;20033;-80
2023/12/25 04:48:16;;;;;;;0.40;0.40;;;10.40;99.90;;;;;;5050130;28;20064;-80
2023/12/25 04:50:43;;;;;;;0.60;0.60;;;10.40;99.90;;;;;;5053227;28;20095;-81
2023/12/25 04:53:09;;;;;;;0.43;0.43;;;10.40;99.90;;;;;;5051617;28;20052;-81
2023/12/25 04:55:34;;;;;;;0.40;0.40;;;10.40;99.90;;;;;;5051323;28;20437;-80
2023/12/25 04:58:00;;;;;;;0.63;0.63;;;10.40;99.90;;;;;;5051460;28;20094;-80
2023/12/25 05:00:26;;;;;;;0.40;0.40;;;10.40;99.90;;;;;;5053821;28;20077;-80
2023/12/25 05:02:52;;;;;;;0.50;0.50;;;10.40;99.90;;;;;;5049071;28;20040;-80
2023/12/25 05:05:17;;;;;;;0.50;0.50;;;10.40;99.90;;;;;;5053360;28;20406;-81
2023/12/25 05:07:43;;;;;;;0.40;0.40;;;10.40;99.90;;;;;;5055758;28;20400;-80
2023/12/25 05:10:08;;;;;;;1.27;0.93;;;10.40;99.90;;;;;;5058625;28;20410;-81
2023/12/25 05:12:34;;;;;;;0.40;0.40;;;10.40;99.90;;;;;;5056102;28;20434;-80
2023/12/25 05:15:00;;;;;;;0.40;0.40;;;10.40;99.90;;;;;;5055177;28;20048;-81
2023/12/25 05:17:25;;;;;;;0.35;0.35;;;10.40;99.90;;;;;;5061358;28;20033;-80
2023/12/25 05:19:51;;;;;;;0.40;0.40;;;10.40;99.90;;;;;;5053972;28;20048;-81
2023/12/25 05:22:16;;;;;;;2.28;0.60;;;10.50;99.90;;;;;;5052102;28;20123;-81
2023/12/25 05:24:42;;;;;;;0.70;0.70;;;10.40;99.90;;;;;;5054848;28;20425;-81
2023/12/25 05:27:08;;;;;;;0.85;0.85;;;10.50;99.90;;;;;;5057567;28;20048;-81
2023/12/25 05:29:34;;;;;;;0.60;0.60;;;10.40;99.90;;;;;;5052256;28;20049;-81
2023/12/25 05:32:00;;;;;;;0.40;0.40;;;10.40;99.90;;;;;;5055613;28;20041;-81
2023/12/25 05:34:27;;;;;;;0.50;0.50;;;10.40;99.90;;;;;;5049508;28;20041;-81
2023/12/25 05:36:53;;;;;;;0.40;0.40;;;10.40;99.90;;;;;;5056095;28;20512;-80
2023/12/25 05:39:19;;;;;;;0.60;0.60;;;10.40;99.90;;;;;;5038387;28;20033;-80
2023/12/25 05:41:45;;;;;;;0.40;0.40;;;10.40;99.90;;;;;;5054438;28;20056;-80
2023/12/25 05:44:10;;;;;;;0.50;0.50;;;10.40;99.90;;;;;;5050143;28;20033;-81
2023/12/25 05:46:36;;;;;;;0.45;0.45;;;10.50;99.90;;;;;;5068815;28;20701;-81
2023/12/25 05:49:03;;;;;;;0.40;0.40;;;10.50;99.90;;;;;;5048012;28;20456;-80
2023/12/25 05:51:28;;;;;;;0.65;0.65;;;10.40;99.90;;;;;;5054719;28;20060;-82
2023/12/25 05:53:54;;;;;;;0.40;0.40;;;10.50;99.90;;;;;;5051754;28;20033;-80
2023/12/25 05:56:19;;;;;;;0.40;0.40;;;10.40;99.90;;;;;;5054596;28;20063;-81
2023/12/25 05:58:45;;;;;;;0.60;0.60;;;10.50;99.90;;;;;;5049694;28;20099;-80
2023/12/25 06:01:13;;;;;;;0.47;0.47;;;10.50;99.90;;;;;;5048462;28;20049;-82
2023/12/25 06:03:39;;;;;;;0.68;0.68;;;10.50;99.90;;;;;;5051825;28;20126;-80
2023/12/25 06:06:05;;;;;;;1.15;1.15;;;10.50;99.90;;;;;;5048257;28;20071;-81
2023/12/25 06:08:32;;;;;;;0.50;0.50;;;10.50;99.90;;;;;;5038528;28;20801;-81
2023/12/25 06:10:58;;;;;;;2.20;1.15;;;10.50;99.90;;;;;;5050261;28;20041;-81
2023/12/25 06:13:24;;;;;;;1.17;1.08;;;10.50;99.90;;;;;;5050966;28;20052;-81
2023/12/25 06:15:50;;;;;;;0.55;0.52;;;10.40;99.90;;;;;;5053418;28;20876;-80
2023/12/25 06:18:15;;;;;;;0.43;0.43;;;10.50;99.90;;;;;;5054618;28;20095;-79
2023/12/25 06:20:41;;;;;;;0.88;0.85;;;10.40;99.90;;;;;;5053700;28;20486;-81
2023/12/25 06:23:07;;;;;;;0.50;0.50;;;10.40;99.90;;;;;;5049725;28;20556;-81
2023/12/25 06:25:32;;;;;;;0.70;0.70;;;10.40;99.90;;;;;;5059800;28;20440;-80
2023/12/25 06:27:58;;;;;;;0.40;0.40;;;10.30;99.90;;;;;;5050092;28;20040;-81
2023/12/25 06:30:24;;;;;;;0.40;0.40;;;10.30;99.90;;;;;;5053994;28;20040;-81
2023/12/25 06:32:50;;;;;;;0.40;0.40;;;10.30;99.90;;;;;;5040061;28;20040;-80
2023/12/25 06:35:17;;;;;;;0.40;0.40;;;10.20;99.90;;;;;;5054751;28;20683;-81
2023/12/25 06:37:42;;;;;;;0.93;0.93;;;10.20;99.90;;;;;;5054301;28;20131;-81
2023/12/25 06:40:08;;;;;;;0.95;0.70;;;10.20;99.90;;;;;;5049750;28;20152;-80
2023/12/25 06:42:34;;;;;;;0.50;0.50;;;10.10;99.90;;;;;;5056739;28;20086;-79
2023/12/25 06:45:03;;;;;;;0.60;0.60;;;10.10;99.90;;;;;;5053281;28;20037;-81
2023/12/25 06:47:28;;;;;;;0.60;0.60;;;10.10;99.90;;;;;;5057192;28;20107;-81
2023/12/25 06:49:54;;;;;;;0.80;0.80;;;10.10;99.90;;;;;;5056099;28;20510;-81
2023/12/25 06:52:19;;;;;;;0.55;0.55;;;10.00;99.90;;;;;;5050573;28;20076;-80
2023/12/25 06:54:45;;;;;;;0.50;0.50;;;10.00;99.90;;;;;;5049178;28;20052;-81
2023/12/25 06:57:14;;;;;;;0.50;0.50;;;10.00;99.90;;;;;;5049375;28;20679;-80
2023/12/25 06:59:43;;;;;;;0.40;0.40;;;10.00;99.90;;;;;;5048855;28;20044;-80
2023/12/25 07:02:09;;;;;;;0.50;0.50;;;10.00;99.90;;;;;;5053458;28;20056;-81
2023/12/25 07:04:35;;;;;;;0.40;0.40;;;10.00;99.90;;;;;;5050944;28;20055;-81
2023/12/25 07:07:01;;;;;;;0.43;0.43;;;10.00;99.90;;;;;;5049963;28;20754;-80
2023/12/25 07:09:27;;;;;;;0.30;0.30;;;9.90;99.90;;;;;;5038164;28;20049;-80
2023/12/25 07:11:53;;;;;;;0.50;0.50;;;9.90;99.90;;;;;;5051924;28;20060;-80
2023/12/25 07:14:19;;;;;;;2.88;1.70;;;9.90;99.90;;;;;;5054233;28;20067;-80
2023/12/25 07:16:44;;;;;;;0.40;0.40;;;9.90;99.90;;;;;;5049999;28;20509;-81
2023/12/25 07:19:10;;;;;;;0.50;0.50;;;9.90;99.90;;;;;;5052258;28;20430;-81
2023/12/25 07:21:35;;;;;;;0.40;0.40;;;9.90;99.90;;;;;;5054851;28;20072;-80
2023/12/25 07:24:01;;;;;;;0.45;0.45;;;9.90;99.90;;;;;;5052214;28;20137;-80
2023/12/25 07:26:28;;;;;;;0.32;0.32;;;9.80;99.90;;;;;;5053528;28;20041;-80
2023/12/25 07:28:54;;;;;;;0.40;0.40;;;9.80;99.90;;;;;;5048963;28;20076;-81
2023/12/25 07:31:22;;;;;;;0.50;0.50;;;9.80;99.90;;;;;;5051236;28;20083;-80
2023/12/25 07:33:50;;;;;;;0.75;0.75;;;9.80;99.90;;;;;;5053870;28;20155;-80
2023/12/25 07:36:16;;;;;;;1.15;0.80;;;9.70;99.90;;;;;;5051426;28;20040;-80
2023/12/25 07:38:41;;;;;;;0.40;0.40;;;9.70;99.90;;;;;;5057105;28;20099;-80
2023/12/25 07:41:10;;;;;;;0.50;0.50;;;9.70;99.90;;;;;;5038549;28;20047;-81
2023/12/25 07:43:37;;;;;;;0.40;0.40;;;9.70;99.90;;;;;;5048425;28;20045;-81
2023/12/25 07:46:07;;;;;;;0.40;0.40;;;9.70;99.90;;;;;;5050053;28;20056;-81
2023/12/25 07:48:33;;;;;;;0.30;0.30;;;9.60;99.90;;;;;;5050518;28;20068;-81
2023/12/25 07:50:59;;;;;;;0.40;0.40;;;9.60;99.90;;;;;;5054146;28;20079;-80
2023/12/25 07:53:25;;;;;;;0.45;0.45;;;9.60;99.90;;;;;;5055926;28;20410;-81
2023/12/25 07:55:50;;;;;;;0.40;0.40;;;9.60;99.90;;;;;;5036920;28;20048;-81
2023/12/25 07:58:16;;;;;;;0.55;0.55;;;9.60;99.90;;;;;;5052766;28;20045;-81
2023/12/25 08:00:43;;;;;;;0.40;0.40;;;9.50;99.90;;;;;;5048498;28;20045;-80
2023/12/25 08:03:12;;;;;;;0.40;0.40;;;9.50;99.90;;;;;;5050387;28;20376;-81
2023/12/25 08:05:38;;;;;;;0.70;0.70;;;9.50;99.90;;;;;;5032837;28;20068;-80
2023/12/25 08:08:05;;;;;;;0.50;0.50;;;9.50;99.90;;;;;;5049129;28;20064;-80
2023/12/25 08:10:31;;;;;;;0.70;0.70;;;9.50;99.90;;;;;;5055457;28;20059;-80
2023/12/25 08:12:58;;;;;;;0.40;0.40;;;9.50;99.90;;;;;;5053076;28;20049;-80
2023/12/25 08:15:27;;;;;;;0.50;0.50;;;9.50;99.90;;;;;;5057333;28;20391;-80
2023/12/25 08:17:53;;;;;;;0.40;0.40;;;9.50;99.90;;;;;;5052616;28;20077;-81
2023/12/25 08:20:19;;;;;;;0.60;0.60;;;9.50;99.90;;;;;;5051398;28;20080;-81
2023/12/25 08:22:44;;;;;;;0.75;0.75;;;9.40;99.90;;;;;;5050253;28;20055;-81
2023/12/25 08:25:10;;;;;;;0.50;0.50;;;9.50;99.90;;;;;;5048408;28;20041;-81
2023/12/25 08:27:36;;;;;;;0.50;0.50;;;9.50;99.90;;;;;;5054285;28;20032;-81
2023/12/25 08:30:03;;;;;;;0.40;0.40;;;9.40;99.90;;;;;;5048769;28;20041;-81
2023/12/25 08:32:29;;;;;;;0.47;0.47;;;9.50;99.90;;;;;;5056291;28;20611;-80
2023/12/25 08:34:55;;;;;;;0.40;0.40;;;9.50;99.90;;;;;;5046791;28;20040;-81
2023/12/25 08:37:24;;;;;;;0.80;0.80;;;9.40;99.90;;;;;;5047171;28;20522;-80
2023/12/25 08:39:50;;;;;;;0.50;0.50;;;9.40;99.90;;;;;;5050267;28;20053;-81
2023/12/25 08:42:16;;;;;;;0.57;0.57;;;9.50;99.90;;;;;;5048983;28;20094;-82
2023/12/25 08:44:42;;;;;;;0.77;0.77;;;9.40;99.90;;;;;;5052731;28;20865;-80
2023/12/25 08:47:08;;;;;;;0.50;0.50;;;9.40;99.90;;;;;;5055148;28;20037;-81
2023/12/25 08:49:35;;;;;;;0.50;0.50;;;9.40;99.90;;;;;;5049025;28;20041;-81
2023/12/25 08:52:01;;;;;;;0.30;0.30;;;9.40;99.90;;;;;;5051485;28;20087;-81
2023/12/25 08:54:27;;;;;;;0.60;0.60;;;9.40;99.90;;;;;;5046550;28;20128;-80
2023/12/25 08:56:53;;;;;;;0.50;0.50;;;9.40;99.90;;;;;;5046668;28;20140;-80
2023/12/25 08:59:18;;;;;;;0.43;0.43;;;9.40;99.90;;;;;;5048004;28;20036;-80
2023/12/25 09:01:44;;;;;;;0.50;0.50;;;9.40;99.90;;;;;;5050476;28;20094;-80
2023/12/25 09:04:09;;;;;;;0.40;0.40;;;9.40;99.90;;;;;;5057108;28;20071;-80
2023/12/25 09:06:35;;;;;;;0.40;0.40;;;9.40;99.90;;;;;;5050857;28;20064;-79
2023/12/25 09:09:01;;;;;;;0.43;0.43;;;9.40;99.90;;;;;;5050562;28;20468;-81
2023/12/25 09:11:27;;;;;;;0.50;0.50;;;9.40;99.90;;;;;;5044759;28;20125;-79
2023/12/25 09:13:53;;;;;;;0.50;0.50;;;9.40;99.90;;;;;;5052950;28;20032;-80
2023/12/25 09:16:18;;;;;;;0.50;0.50;;;9.40;99.90;;;;;;5053475;28;20045;-81
2023/12/25 09:18:44;;;;;;;0.85;0.85;;;9.50;99.90;;;;;;5054491;28;20053;-81
2023/12/25 09:21:10;;;;;;;0.85;0.85;;;9.40;99.90;;;;;;5050155;28;20051;-80
2023/12/25 09:23:36;;;;;;;0.50;0.50;;;9.50;99.90;;;;;;5051151;28;20049;-80
2023/12/25 09:26:01;;;;;;;0.40;0.40;;;9.50;99.90;;;;;;5053431;28;20044;-80
2023/12/25 09:28:27;;;;;;;0.40;0.40;;;9.40;99.90;;;;;;5049780;28;20055;-80
2023/12/25 09:30:53;;;;;;;0.32;0.32;;;9.40;99.90;;;;;;5057339;28;20057;-80
2023/12/25 09:33:19;;;;;;;0.40;0.40;;;9.40;99.90;;;;;;5052125;28;20370;-80
2023/12/25 09:35:45;;;;;;;0.50;0.50;;;9.50;99.90;;;;;;5046519;28;20779;-80
2023/12/25 09:38:10;;;;;;;0.50;0.50;;;9.50;99.90;;;;;;5049852;28;20040;-80
2023/12/25 09:40:36;;;;;;;0.30;0.30;;;9.50;99.90;;;;;;5053840;28;20409;-81
2023/12/25 09:43:02;;;;;;;0.50;0.50;;;9.50;99.90;;;;;;5057465;28;20032;-81
2023/12/25 09:45:35;;;;;;;0.60;0.60;;;9.50;99.90;;;;;;5051390;28;20095;-80
2023/12/25 09:48:01;;;;;;;0.40;0.40;;;9.50;99.90;;;;;;5046544;28;20501;-81
2023/12/25 09:50:28;;;;;;;0.43;0.43;;;9.60;99.90;;;;;;5038496;28;20047;-81
2023/12/25 09:52:55;;;;;;;0.82;0.82;;;9.60;99.90;;;;;;5058682;28;20048;-81
2023/12/25 09:55:20;;;;;;;0.52;0.52;;;9.60;99.90;;;;;;5058637;28;20040;-80
2023/12/25 09:57:48;;;;;;;0.47;0.47;;;9.60;99.90;;;;;;5057943;28;20055;-79
2023/12/25 10:00:14;;;;;;;1.23;1.23;;;9.70;99.90;;;;;;5056240;28;20060;-80
2023/12/25 10:02:44;;;;;;;0.40;0.40;;;9.80;99.90;;;;;;5052667;28;20052;-80
2023/12/25 10:05:09;;;;;;;0.43;0.43;;;9.90;99.90;;;;;;5057523;28;20102;-80
2023/12/25 10:07:35;;;;;;;0.40;0.40;;;9.90;99.90;;;;;;5059436;28;20057;-81
2023/12/25 10:10:02;;;;;;;0.50;0.50;;;10.00;99.90;;;;;;5057115;28;20048;-81
2023/12/25 10:12:28;;;;;;;0.65;0.65;;;10.10;99.90;;;;;;5059233;28;20048;-80
2023/12/25 10:14:54;;;;;;;0.50;0.50;;;10.10;99.90;;;;;;5058325;28;20079;-81
2023/12/25 10:17:19;;;;;;;0.60;0.60;;;10.20;99.90;;;;;;5042705;28;20120;-81
2023/12/25 10:19:56;;;;;;;0.40;0.40;;;10.20;99.90;;;;;;5054724;28;20105;-81
2023/12/25 10:22:40;;;;;;;0.75;0.75;;;10.30;99.90;;;;;;5052209;28;20036;-81
2023/12/25 10:25:09;;;;;;;0.50;0.50;;;10.20;99.90;;;;;;5054584;28;20788;-81
2023/12/25 10:27:38;;;;;;;0.43;0.43;;;10.30;99.90;;;;;;5054429;28;20043;-81
2023/12/25 10:30:04;;;;;;;0.40;0.40;;;10.30;99.90;;;;;;5051575;28;20083;-81
2023/12/25 10:32:31;;;;;;;0.50;0.50;;;10.30;99.90;;;;;;5053266;28;20114;-80
2023/12/25 10:35:20;;;;;;;0.38;0.38;;;10.30;99.90;;;;;;5053671;28;20525;-80
2023/12/25 10:37:46;;;;;;;0.40;0.40;;;10.30;99.90;;;;;;5057813;28;20116;-80
2023/12/25 10:40:22;;;;;;;0.43;0.43;;;10.30;99.90;;;;;;5060211;28;20044;-80
2023/12/25 10:42:50;;;;;;;0.50;0.50;;;10.30;99.90;;;;;;5053382;28;20040;-80
2023/12/25 10:45:22;;;;;;;0.50;0.50;;;10.30;99.90;;;;;;5056254;28;20040;-80
2023/12/25 10:47:52;;;;;;;0.40;0.40;;;10.30;99.90;;;;;;5042796;28;20049;-80
2023/12/25 10:50:25;;;;;;;0.60;0.60;;;10.30;99.90;;;;;;5048448;28;20506;-80
2023/12/25 10:52:52;;;;;;;0.90;0.70;;;10.30;99.90;;;;;;5053868;28;20219;-81
2023/12/25 10:55:26;;;;;;;0.73;0.73;;;10.30;99.90;;;;;;5056558;28;20055;-81
2023/12/25 10:57:52;;;;;;;0.52;0.52;;;10.30;99.90;;;;;;5061714;28;20045;-81
2023/12/25 11:00:20;;;;;;;0.57;0.57;;;10.30;99.90;;;;;;5054784;28;20485;-80
2023/12/25 11:02:51;;;;;;;0.60;0.60;;;10.30;99.90;;;;;;5058446;28;20081;-81
2023/12/25 11:05:17;;;;;;;0.50;0.50;;;10.30;99.90;;;;;;5056140;28;20144;-81
2023/12/25 11:07:48;;;;;;;0.30;0.30;;;10.30;99.90;;;;;;5049574;28;20139;-82
2023/12/25 11:10:13;;;;;;;0.70;0.70;;;10.30;99.90;;;;;;5057705;28;20570;-81
2023/12/25 11:12:39;;;;;;;0.47;0.47;;;10.30;99.90;;;;;;5051602;28;20033;-81
2023/12/25 11:15:05;;;;;;;0.85;0.85;;;10.30;99.90;;;;;;5057079;28;20102;-80
2023/12/25 11:17:36;;;;;;;0.40;0.40;;;10.30;99.90;;;;;;5051662;28;20457;-78
2023/12/25 11:20:04;;;;;;;0.40;0.40;;;10.20;99.90;;;;;;5057656;28;21026;-80
2023/12/25 11:22:53;;;;;;;0.50;0.50;;;10.20;99.90;;;;;;5056775;28;20036;-80
2023/12/25 11:25:20;;;;;;;0.43;0.43;;;10.20;99.90;;;;;;5050585;28;20049;-79
2023/12/25 11:27:54;;;;;;;0.50;0.50;;;10.20;99.90;;;;;;5056784;28;20067;-79
2023/12/25 11:30:23;;;;;;;0.40;0.40;;;10.20;99.90;;;;;;5051887;28;20114;-80
2023/12/25 11:32:49;;;;;;;;;;;10.20;99.90;;;;;;5056034;28;20053;-80
2023/12/25 11:35:27;;;;;;;0.43;0.43;;;10.20;99.90;;;;;;5055732;28;19924;-80
2023/12/25 11:38:24;;;;;;;0.40;0.40;;;10.20;99.90;;;;;;5046124;28;20045;-79
2023/12/25 11:40:50;;;;;;;0.43;0.43;;;10.20;99.90;;;;;;5054653;28;20078;-79
2023/12/25 11:43:20;;;;;;;0.40;0.40;;;10.20;99.90;;;;;;5047767;28;20041;-80
2023/12/25 11:45:47;;;;;;;0.60;0.60;;;10.20;99.90;;;;;;5053835;28;20136;-77
2023/12/25 11:48:14;;;;;;;2.60;1.40;;;10.20;99.90;;;;;;5050180;28;20383;-78
2023/12/25 11:50:46;;;;;;;1.40;0.85;;;10.10;99.90;;;;;;5057855;28;20102;-77
2023/12/25 11:53:35;;;;;;;0.40;0.40;;;10.10;99.90;;;;;;5055734;28;20071;-77
2023/12/25 11:56:01;;;;;;;0.40;0.40;;;10.10;99.90;;;;;;5050842;28;20045;-77
2023/12/25 11:58:26;;;;;;;0.50;0.50;;;10.10;99.90;;;;;;5053079;28;20040;-77
2023/12/25 12:00:52;;;;;;;0.40;0.40;;;10.10;99.90;;;;;;5049321;28;20045;-77
2023/12/25 12:03:18;;;;;;;0.50;0.50;;;10.10;99.90;;;;;;5054744;28;20989;-77
2023/12/25 12:05:45;;;;;;;0.52;0.52;;;10.10;99.90;;;;;;5054566;28;20060;-77
2023/12/25 12:08:11;;;;;;;0.40;0.40;;;10.10;99.90;;;;;;5052698;28;20069;-77
2023/12/25 12:10:36;;;;;;;0.50;0.50;;;10.20;99.90;;;;;;5050690;28;20071;-77
2023/12/25 12:13:02;;;;;;;0.50;0.50;;;10.20;99.90;;;;;;5054170;28;20045;-77
2023/12/25 12:15:27;;;;;;;0.95;0.95;;;10.20;99.90;;;;;;5051143;28;20099;-77
2023/12/25 12:17:53;;;;;;;0.47;0.47;;;10.20;99.90;;;;;;5057794;28;20041;-77
2023/12/25 12:20:19;;;;;;;0.73;0.60;;;10.20;99.90;;;;;;5051535;28;20045;-76
2023/12/25 12:22:45;;;;;;;0.45;0.45;;;10.20;99.90;;;;;;5060766;28;20132;-76
2023/12/25 12:25:15;;;;;;;0.30;0.30;;;10.20;99.90;;;;;;5052486;28;20041;-78
2023/12/25 12:27:41;;;;;;;2.40;1.08;;;10.20;99.90;;;;;;5053217;28;20141;-80
2023/12/25 12:30:08;;;;;;;1.20;0.98;;;10.10;99.90;;;;;;5057432;28;20040;-80
2023/12/25 12:32:35;;;;;;;0.50;0.50;;;10.20;99.90;;;;;;5045066;28;20513;-80
2023/12/25 12:35:02;;;;;;;1.60;1.47;;;10.20;99.90;;;;;;5056253;28;20036;-79
2023/12/25 12:37:29;;;;;;;0.70;0.70;;;10.20;99.90;;;;;;5049409;28;20103;-80
2023/12/25 12:40:01;;;;;;;1.92;0.93;;;10.20;99.90;;;;;;5052426;28;20059;-80
2023/12/25 12:42:30;;;;;;;0.82;0.82;;;10.20;99.90;;;;;;5050596;28;20532;-79
2023/12/25 12:44:57;;;;;;;0.45;0.45;;;10.20;99.90;;;;;;5054837;28;20067;-80
2023/12/25 12:47:23;;;;;;;0.40;0.40;;;10.20;99.90;;;;;;5059582;28;20037;-80